Time;durP1;ratioP1;P1;durP2;ratioP2;P2;SDS_P1;SDS_P2;PMS_P1;PMS_P2;Temp;Humidity;BMP_temperature;BMP_pressure;BME280_temperature;BME280_humidity;BME280_pressure;Samples;Min_cycle;Max_cycle;Signal;HPM_P1;HPM_P2
2021/01/17 00:00:24;;;;;;;19.75;9.40;;;;;;;;;;5074006;28;20031;-65
2021/01/17 00:02:51;;;;;;;20.50;8.68;;;;;;;;;;5073752;28;20027;-65
2021/01/17 00:05:18;;;;;;;19.00;8.95;;;;;;;;;;5073958;28;20083;-66
2021/01/17 00:07:45;;;;;;;18.60;8.40;;;;;;;;;;5073762;28;20012;-65
2021/01/17 00:10:12;;;;;;;18.80;8.95;;;;;;;;;;5074804;28;20587;-65
2021/01/17 00:12:38;;;;;;;19.92;8.60;;;;;;;;;;5074742;28;20039;-65
2021/01/17 00:15:05;;;;;;;20.40;9.45;;;;;;;;;;5074889;28;20025;-65
2021/01/17 00:17:31;;;;;;;22.90;9.50;;;;;;;;;;5074838;28;20017;-65
2021/01/17 00:19:58;;;;;;;19.67;8.55;;;;;;;;;;5072636;28;20369;-65
2021/01/17 00:22:23;;;;;;;19.10;8.48;;;;;;;;;;5074404;28;20025;-65
2021/01/17 00:24:49;;;;;;;18.95;8.80;;;;;;;;;;5073805;28;20373;-65
2021/01/17 00:27:15;;;;;;;17.35;9.07;;;;;;;;;;5074510;28;20392;-66
2021/01/17 00:29:41;;;;;;;21.83;9.00;;;;;;;;;;5074577;28;20024;-65
2021/01/17 00:32:08;;;;;;;17.98;8.25;;;;;;;;;;5073168;28;20025;-65
2021/01/17 00:34:34;;;;;;;20.63;9.07;;;;;;;;;;5073987;28;20084;-65
2021/01/17 00:36:59;;;;;;;23.42;8.65;;;;;;;;;;5074471;28;20048;-65
2021/01/17 00:39:25;;;;;;;16.10;8.15;;;;;;;;;;5074419;28;20017;-65
2021/01/17 00:41:50;;;;;;;21.75;9.32;;;;;;;;;;5074228;28;20024;-65
2021/01/17 00:44:16;;;;;;;18.15;8.32;;;;;;;;;;5074190;28;20608;-65
2021/01/17 00:46:41;;;;;;;18.10;9.85;;;;;;;;;;5074042;28;20028;-65
2021/01/17 00:49:07;;;;;;;21.02;9.38;;;;;;;;;;5072148;28;20055;-65
2021/01/17 00:51:37;;;;;;;25.17;10.13;;;;;;;;;;5072867;28;20106;-65
2021/01/17 00:54:03;;;;;;;19.92;9.02;;;;;;;;;;5072889;28;20042;-65
2021/01/17 00:56:28;;;;;;;20.90;9.63;;;;;;;;;;5074120;28;20021;-65
2021/01/17 00:58:55;;;;;;;23.77;10.13;;;;;;;;;;5074266;28;20012;-65
2021/01/17 01:01:21;;;;;;;22.23;9.93;;;;;;;;;;5073820;28;20432;-65
2021/01/17 01:03:47;;;;;;;22.95;10.50;;;;;;;;;;5074111;28;20032;-65
2021/01/17 01:06:23;;;;;;;18.17;9.00;;;;;;;;;;5073689;28;20412;-65
2021/01/17 01:08:48;;;;;;;20.15;8.70;;;;;;;;;;5072465;28;20099;-65
2021/01/17 01:11:16;;;;;;;22.33;9.15;;;;;;;;;;5073664;28;20031;-65
2021/01/17 01:13:41;;;;;;;22.38;9.32;;;;;;;;;;5073829;28;20043;-65
2021/01/17 01:16:11;;;;;;;22.75;9.27;;;;;;;;;;5073240;28;20481;-65
2021/01/17 01:18:36;;;;;;;;;;;;;;;;;;5073775;28;20041;-65
2021/01/17 01:21:01;;;;;;;18.77;8.50;;;;;;;;;;5073493;28;19920;-65
2021/01/17 01:23:28;;;;;;;21.38;8.63;;;;;;;;;;5073715;28;20477;-65
2021/01/17 01:25:56;;;;;;;20.92;9.80;;;;;;;;;;5073436;28;20053;-64
2021/01/17 01:28:23;;;;;;;20.52;9.70;;;;;;;;;;5073154;28;20017;-66
2021/01/17 01:30:49;;;;;;;18.35;8.88;;;;;;;;;;5072116;28;20024;-63
2021/01/17 01:33:14;;;;;;;19.85;9.38;;;;;;;;;;5073306;28;20017;-63
2021/01/17 01:35:41;;;;;;;18.55;8.75;;;;;;;;;;5073250;28;20047;-63
2021/01/17 01:38:08;;;;;;;17.40;8.68;;;;;;;;;;5072150;28;20016;-63
2021/01/17 01:40:34;;;;;;;19.20;8.73;;;;;;;;;;5072973;28;20472;-63
2021/01/17 01:43:01;;;;;;;20.40;9.43;;;;;;;;;;5072014;28;20020;-64
2021/01/17 01:45:26;;;;;;;24.65;10.45;;;;;;;;;;5072744;28;20009;-64
2021/01/17 01:47:52;;;;;;;29.55;9.77;;;;;;;;;;5073230;28;20016;-64
2021/01/17 01:50:17;;;;;;;19.98;9.13;;;;;;;;;;5071214;28;20373;-64
2021/01/17 01:52:43;;;;;;;21.02;9.82;;;;;;;;;;5073021;28;20016;-64
2021/01/17 01:55:10;;;;;;;22.25;9.32;;;;;;;;;;5071584;28;20100;-64
2021/01/17 01:57:35;;;;;;;25.70;9.48;;;;;;;;;;5071479;28;20013;-64
2021/01/17 02:00:03;;;;;;;22.27;9.63;;;;;;;;;;5072800;28;20062;-64
2021/01/17 02:02:29;;;;;;;20.50;8.50;;;;;;;;;;5072782;28;20055;-64
2021/01/17 02:04:55;;;;;;;25.73;8.77;;;;;;;;;;5071474;28;20052;-64
2021/01/17 02:07:31;;;;;;;21.33;8.40;;;;;;;;;;5072789;28;20028;-64
2021/01/17 02:09:56;;;;;;;21.63;8.48;;;;;;;;;;5072959;28;20346;-64
2021/01/17 02:12:32;;;;;;;20.75;9.32;;;;;;;;;;5072503;28;20066;-64
2021/01/17 02:15:01;;;;;;;21.20;8.77;;;;;;;;;;5072496;28;20497;-64
2021/01/17 02:17:28;;;;;;;25.20;10.02;;;;;;;;;;5072366;28;20063;-63
2021/01/17 02:19:58;;;;;;;19.75;8.82;;;;;;;;;;5070967;28;20041;-63
2021/01/17 02:22:23;;;;;;;25.92;9.65;;;;;;;;;;5071703;28;20016;-64
2021/01/17 02:24:57;;;;;;;26.55;9.02;;;;;;;;;;5071370;28;20021;-64
2021/01/17 02:27:23;;;;;;;26.00;8.95;;;;;;;;;;5071082;28;20070;-64
2021/01/17 02:29:50;;;;;;;23.50;9.38;;;;;;;;;;5071251;28;20016;-64
2021/01/17 02:32:17;;;;;;;24.65;9.77;;;;;;;;;;5071021;28;20037;-64
2021/01/17 02:34:46;;;;;;;26.85;10.00;;;;;;;;;;5070852;28;20090;-64
2021/01/17 02:37:21;;;;;;;29.17;10.77;;;;;;;;;;5072137;28;20028;-64
2021/01/17 02:39:47;;;;;;;22.02;9.68;;;;;;;;;;5071046;28;20419;-63
2021/01/17 02:42:14;;;;;;;25.15;9.32;;;;;;;;;;5072106;28;20039;-64
2021/01/17 02:44:41;;;;;;;25.02;9.63;;;;;;;;;;5072067;28;20017;-63
2021/01/17 02:47:08;;;;;;;23.25;10.13;;;;;;;;;;5072100;28;20016;-63
2021/01/17 02:49:33;;;;;;;27.75;10.77;;;;;;;;;;5070564;28;20452;-64
2021/01/17 02:52:01;;;;;;;20.35;9.80;;;;;;;;;;5070914;28;20097;-64
2021/01/17 02:54:30;;;;;;;23.98;9.90;;;;;;;;;;5071524;28;20074;-64
2021/01/17 02:57:00;;;;;;;25.20;10.85;;;;;;;;;;5072044;28;20028;-64
2021/01/17 02:59:29;;;;;;;25.05;10.38;;;;;;;;;;5071092;28;20021;-64
2021/01/17 03:01:55;;;;;;;24.88;10.13;;;;;;;;;;5070740;28;20028;-64
2021/01/17 03:04:31;;;;;;;28.55;10.13;;;;;;;;;;5071959;28;20354;-64
2021/01/17 03:06:59;;;;;;;28.27;11.48;;;;;;;;;;5071864;28;20074;-64
2021/01/17 03:09:27;;;;;;;23.85;10.30;;;;;;;;;;5053903;28;20043;-64
2021/01/17 03:11:54;;;;;;;29.50;11.40;;;;;;;;;;5070645;28;20024;-64
2021/01/17 03:14:20;;;;;;;26.00;10.82;;;;;;;;;;5071738;28;20032;-64
2021/01/17 03:16:46;;;;;;;26.45;10.65;;;;;;;;;;5053722;28;20531;-63
2021/01/17 03:19:11;;;;;;;24.13;10.18;;;;;;;;;;5071230;28;20025;-64
2021/01/17 03:21:36;;;;;;;25.85;10.68;;;;;;;;;;5071794;28;20457;-64
2021/01/17 03:24:03;;;;;;;24.98;10.35;;;;;;;;;;5071818;28;20017;-63
2021/01/17 03:26:29;;;;;;;20.58;10.60;;;;;;;;;;5071560;28;20020;-63
2021/01/17 03:28:54;;;;;;;23.55;10.98;;;;;;;;;;5071872;28;20492;-64
2021/01/17 03:31:21;;;;;;;26.05;11.07;;;;;;;;;;5053742;28;20037;-63
2021/01/17 03:33:47;;;;;;;23.70;10.60;;;;;;;;;;5073137;28;20447;-64
2021/01/17 03:36:13;;;;;;;25.25;10.15;;;;;;;;;;5075199;28;20078;-64
2021/01/17 03:38:39;;;;;;;21.58;10.00;;;;;;;;;;5075547;28;20071;-63
2021/01/17 03:41:05;;;;;;;27.88;11.27;;;;;;;;;;5075776;28;20052;-64
2021/01/17 03:43:31;;;;;;;26.05;10.70;;;;;;;;;;5075392;28;20017;-64
2021/01/17 03:45:56;;;;;;;24.30;9.30;;;;;;;;;;5075329;28;20378;-63
2021/01/17 03:48:22;;;;;;;22.10;10.18;;;;;;;;;;5073639;28;20112;-63
2021/01/17 03:50:48;;;;;;;22.58;9.75;;;;;;;;;;5074595;28;20024;-64
2021/01/17 03:53:14;;;;;;;22.20;10.63;;;;;;;;;;5075357;28;20024;-63
2021/01/17 03:55:40;;;;;;;25.65;9.77;;;;;;;;;;5075252;28;20032;-64
2021/01/17 03:58:07;;;;;;;25.05;11.00;;;;;;;;;;5075132;28;20040;-64
2021/01/17 04:00:34;;;;;;;24.77;10.25;;;;;;;;;;5073681;28;20018;-64
2021/01/17 04:02:59;;;;;;;23.25;10.07;;;;;;;;;;5074964;28;20036;-64
2021/01/17 04:05:24;;;;;;;20.90;9.90;;;;;;;;;;5075139;28;20024;-64
2021/01/17 04:07:50;;;;;;;22.02;10.23;;;;;;;;;;5074047;28;20394;-64
2021/01/17 04:10:15;;;;;;;25.33;10.88;;;;;;;;;;5074766;28;20095;-64
2021/01/17 04:12:41;;;;;;;24.83;10.38;;;;;;;;;;5074831;28;20035;-64
2021/01/17 04:15:07;;;;;;;27.05;11.20;;;;;;;;;;5073397;28;20469;-64
2021/01/17 04:17:32;;;;;;;26.77;9.68;;;;;;;;;;5074798;28;20043;-64
2021/01/17 04:19:58;;;;;;;26.35;10.88;;;;;;;;;;5072998;28;20067;-64
2021/01/17 04:22:24;;;;;;;25.40;10.45;;;;;;;;;;5074232;28;20032;-64
2021/01/17 04:24:50;;;;;;;25.88;11.02;;;;;;;;;;5074584;28;20032;-63
2021/01/17 04:27:15;;;;;;;27.30;10.57;;;;;;;;;;5074538;28;20017;-64
2021/01/17 04:29:41;;;;;;;25.98;11.23;;;;;;;;;;5073839;28;20016;-63
2021/01/17 04:32:06;;;;;;;24.70;11.45;;;;;;;;;;5074447;28;20028;-64
2021/01/17 04:34:33;;;;;;;23.90;10.52;;;;;;;;;;5073788;28;20538;-64
2021/01/17 04:36:59;;;;;;;24.75;10.05;;;;;;;;;;5074683;28;20029;-64
2021/01/17 04:39:24;;;;;;;24.23;11.07;;;;;;;;;;5074343;28;20078;-64
2021/01/17 04:41:55;;;;;;;21.73;10.35;;;;;;;;;;5073166;28;20017;-64
2021/01/17 04:44:22;;;;;;;25.88;10.70;;;;;;;;;;5073845;28;20024;-64
2021/01/17 04:46:49;;;;;;;22.65;9.98;;;;;;;;;;5073228;28;20008;-63
2021/01/17 04:49:16;;;;;;;26.38;10.18;;;;;;;;;;5072425;28;20020;-63
2021/01/17 04:51:47;;;;;;;24.83;11.18;;;;;;;;;;5074043;28;20020;-64
2021/01/17 04:54:14;;;;;;;21.20;10.48;;;;;;;;;;5072868;28;20469;-64
2021/01/17 04:56:45;;;;;;;22.67;10.60;;;;;;;;;;5073706;28;20163;-64
2021/01/17 04:59:12;;;;;;;21.75;9.75;;;;;;;;;;5073952;28;20009;-64
2021/01/17 05:01:47;;;;;;;23.05;10.10;;;;;;;;;;5073175;28;20028;-64
2021/01/17 05:04:22;;;;;;;24.08;10.00;;;;;;;;;;5072520;28;20008;-65
2021/01/17 05:06:48;;;;;;;19.08;9.93;;;;;;;;;;5074039;28;20016;-65
2021/01/17 05:09:19;;;;;;;27.17;11.07;;;;;;;;;;5072647;28;20012;-64
2021/01/17 05:11:47;;;;;;;26.67;10.52;;;;;;;;;;5072707;28;20095;-64
2021/01/17 05:14:14;;;;;;;29.65;10.88;;;;;;;;;;5072628;28;20377;-64
2021/01/17 05:16:41;;;;;;;27.40;12.93;;;;;;;;;;5055262;28;20063;-64
2021/01/17 05:19:10;;;;;;;26.65;11.95;;;;;;;;;;5071748;28;20028;-64
2021/01/17 05:21:38;;;;;;;26.58;11.20;;;;;;;;;;5072375;28;20020;-64
2021/01/17 05:24:07;;;;;;;25.95;11.27;;;;;;;;;;5072408;28;20024;-64
2021/01/17 05:26:33;;;;;;;;;;;;;;;;;;5073676;28;20017;-64
2021/01/17 05:28:59;;;;;;;20.88;10.13;;;;;;;;;;5073528;28;20004;-64
2021/01/17 05:31:26;;;;;;;26.77;11.50;;;;;;;;;;5073132;28;20472;-64
2021/01/17 05:33:54;;;;;;;25.15;10.48;;;;;;;;;;5073142;28;20519;-64
2021/01/17 05:36:20;;;;;;;22.90;11.35;;;;;;;;;;5072233;28;20033;-64
2021/01/17 05:38:58;;;;;;;22.95;11.35;;;;;;;;;;5072987;28;20066;-64
2021/01/17 05:41:24;;;;;;;25.90;11.13;;;;;;;;;;5071771;28;20020;-64
2021/01/17 05:43:51;;;;;;;26.77;11.57;;;;;;;;;;5071882;28;20024;-64
2021/01/17 05:46:16;;;;;;;24.88;11.27;;;;;;;;;;5072063;28;20021;-64
2021/01/17 05:48:43;;;;;;;30.40;13.18;;;;;;;;;;5072702;28;20488;-64
2021/01/17 05:51:08;;;;;;;31.70;12.40;;;;;;;;;;5071612;28;20024;-64
2021/01/17 05:53:34;;;;;;;26.38;12.68;;;;;;;;;;5073105;28;20024;-64
2021/01/17 05:56:14;;;;;;;29.10;12.63;;;;;;;;;;5072225;28;20070;-64
2021/01/17 05:58:42;;;;;;;30.65;12.52;;;;;;;;;;5071492;28;20017;-64
2021/01/17 06:01:18;;;;;;;27.40;11.52;;;;;;;;;;5071622;28;20108;-64
2021/01/17 06:03:54;;;;;;;26.85;11.20;;;;;;;;;;5072792;28;20403;-64
2021/01/17 06:06:25;;;;;;;28.38;13.05;;;;;;;;;;5071722;28;20099;-64
2021/01/17 06:08:52;;;;;;;28.25;11.68;;;;;;;;;;5071562;28;20017;-64
2021/01/17 06:11:19;;;;;;;27.42;11.82;;;;;;;;;;5072747;28;20015;-64
2021/01/17 06:13:52;;;;;;;25.85;11.10;;;;;;;;;;5072600;28;20385;-64
2021/01/17 06:16:38;;;;;;;26.50;11.75;;;;;;;;;;5072272;28;20032;-65
2021/01/17 06:19:05;;;;;;;29.45;11.77;;;;;;;;;;5072226;28;20016;-64
2021/01/17 06:21:31;;;;;;;26.73;11.25;;;;;;;;;;5071118;28;20016;-64
2021/01/17 06:23:58;;;;;;;30.20;11.80;;;;;;;;;;5072544;28;20024;-64
2021/01/17 06:26:25;;;;;;;26.05;11.27;;;;;;;;;;5072561;28;20451;-63
2021/01/17 06:28:52;;;;;;;26.88;12.13;;;;;;;;;;5072509;28;20064;-64
2021/01/17 06:31:26;;;;;;;26.48;11.55;;;;;;;;;;5072248;28;20077;-64
2021/01/17 06:34:12;;;;;;;24.38;11.48;;;;;;;;;;5070741;28;20492;-64
2021/01/17 06:36:39;;;;;;;30.42;13.00;;;;;;;;;;5071107;28;20152;-64
2021/01/17 06:39:18;;;;;;;31.45;12.23;;;;;;;;;;5072323;28;20496;-64
2021/01/17 06:41:45;;;;;;;30.77;12.50;;;;;;;;;;5072224;28;20012;-64
2021/01/17 06:44:13;;;;;;;25.60;11.00;;;;;;;;;;5072304;28;20020;-64
2021/01/17 06:46:40;;;;;;;28.88;12.10;;;;;;;;;;5071829;28;20149;-64
2021/01/17 06:49:15;;;;;;;26.67;11.82;;;;;;;;;;5071669;28;20423;-63
2021/01/17 06:51:41;;;;;;;22.65;10.30;;;;;;;;;;5072194;28;20412;-64
2021/01/17 06:54:07;;;;;;;29.33;11.63;;;;;;;;;;5072379;28;20025;-64
2021/01/17 06:56:33;;;;;;;29.42;12.68;;;;;;;;;;5070602;28;20028;-64
2021/01/17 06:58:59;;;;;;;30.20;12.57;;;;;;;;;;5072046;28;20017;-64
2021/01/17 07:01:27;;;;;;;28.75;11.95;;;;;;;;;;5072173;28;20017;-64
2021/01/17 07:03:57;;;;;;;45.72;18.38;;;;;;;;;;5072025;28;20031;-64
2021/01/17 07:06:29;;;;;;;40.97;16.60;;;;;;;;;;5070396;28;20440;-63
2021/01/17 07:09:01;;;;;;;38.60;16.02;;;;;;;;;;5075526;28;20025;-64
2021/01/17 07:11:33;;;;;;;43.63;16.52;;;;;;;;;;5074820;28;20012;-64
2021/01/17 07:14:04;;;;;;;41.42;15.90;;;;;;;;;;5074947;28;20021;-64
2021/01/17 07:16:31;;;;;;;44.28;17.00;;;;;;;;;;5074179;28;20060;-64
2021/01/17 07:19:02;;;;;;;41.88;16.85;;;;;;;;;;5075609;28;20017;-64
2021/01/17 07:21:33;;;;;;;44.67;16.17;;;;;;;;;;5075916;28;20012;-64
2021/01/17 07:24:01;;;;;;;38.28;15.07;;;;;;;;;;5074693;28;20535;-64
2021/01/17 07:26:34;;;;;;;38.20;16.00;;;;;;;;;;5075443;28;20028;-64
2021/01/17 07:29:02;;;;;;;39.55;16.02;;;;;;;;;;5074508;28;20020;-64
2021/01/17 07:31:31;;;;;;;35.97;15.15;;;;;;;;;;5075614;28;20027;-64
2021/01/17 07:34:11;;;;;;;44.65;16.73;;;;;;;;;;5075508;28;20135;-65
2021/01/17 07:36:37;;;;;;;;;;;;;;;;;;5074736;28;20040;-64
2021/01/17 07:39:04;;;;;;;42.25;16.08;;;;;;;;;;5075792;28;19904;-64
2021/01/17 07:41:35;;;;;;;37.17;16.13;;;;;;;;;;5075792;28;20142;-65
2021/01/17 07:44:01;;;;;;;40.90;16.10;;;;;;;;;;5075918;28;20021;-65
2021/01/17 07:46:32;;;;;;;44.63;18.27;;;;;;;;;;5074034;28;20100;-65
2021/01/17 07:49:00;;;;;;;47.28;17.83;;;;;;;;;;5073951;28;20082;-64
2021/01/17 07:51:27;;;;;;;40.47;16.90;;;;;;;;;;5074065;28;20020;-64
2021/01/17 07:53:56;;;;;;;35.80;16.50;;;;;;;;;;5074091;28;20020;-64
2021/01/17 07:56:27;;;;;;;36.03;14.52;;;;;;;;;;5073727;28;20071;-64
2021/01/17 07:59:04;;;;;;;27.77;13.07;;;;;;;;;;5075510;28;20123;-64
2021/01/17 08:01:31;;;;;;;28.73;13.10;;;;;;;;;;5073980;28;20017;-64
2021/01/17 08:04:07;;;;;;;31.48;13.57;;;;;;;;;;5074882;28;20377;-64
2021/01/17 08:06:34;;;;;;;30.25;13.75;;;;;;;;;;5073441;28;20051;-64
2021/01/17 08:09:00;;;;;;;26.15;12.23;;;;;;;;;;5075153;28;20469;-64
2021/01/17 08:11:46;;;;;;;26.73;12.57;;;;;;;;;;5056973;28;20028;-64
2021/01/17 08:14:21;;;;;;;23.75;12.30;;;;;;;;;;5073688;28;20024;-65
2021/01/17 08:16:58;;;;;;;27.55;11.82;;;;;;;;;;5074556;28;20071;-64
2021/01/17 08:19:33;;;;;;;30.80;13.88;;;;;;;;;;5072197;28;20027;-64
2021/01/17 08:22:19;;;;;;;75.72;29.40;;;;;;;;;;5075032;28;20020;-63
2021/01/17 08:24:46;;;;;;;38.20;17.35;;;;;;;;;;5073163;28;20102;-64
2021/01/17 08:27:22;;;;;;;28.13;13.15;;;;;;;;;;5074562;28;20016;-64
2021/01/17 08:29:58;;;;;;;23.10;10.43;;;;;;;;;;5073519;28;20024;-64
2021/01/17 08:32:37;;;;;;;22.65;11.40;;;;;;;;;;5073115;28;20008;-64
2021/01/17 08:35:12;;;;;;;22.05;10.98;;;;;;;;;;5073108;28;20045;-64
2021/01/17 08:37:38;;;;;;;25.88;11.43;;;;;;;;;;5074739;28;20077;-64
2021/01/17 08:40:04;;;;;;;24.52;10.75;;;;;;;;;;5074487;28;20008;-63
2021/01/17 08:42:32;;;;;;;22.77;11.05;;;;;;;;;;5074229;28;20047;-63
2021/01/17 08:44:58;;;;;;;25.95;11.90;;;;;;;;;;5074585;28;20422;-64
2021/01/17 08:47:24;;;;;;;29.50;12.63;;;;;;;;;;5073002;28;20020;-63
2021/01/17 08:49:51;;;;;;;27.50;13.07;;;;;;;;;;5055630;28;20095;-63
2021/01/17 08:52:27;;;;;;;27.10;13.57;;;;;;;;;;5074311;28;20017;-64
2021/01/17 08:54:52;;;;;;;27.23;13.10;;;;;;;;;;5074232;28;20012;-64
2021/01/17 08:57:29;;;;;;;30.50;16.35;;;;;;;;;;5072808;28;20023;-64
2021/01/17 08:59:54;;;;;;;24.88;12.82;;;;;;;;;;5072904;28;20496;-64
2021/01/17 09:02:20;;;;;;;27.65;11.88;;;;;;;;;;5073891;28;20017;-64
2021/01/17 09:04:47;;;;;;;28.95;14.63;;;;;;;;;;5074032;28;20020;-64
2021/01/17 09:07:31;;;;;;;26.83;12.48;;;;;;;;;;5074188;28;20092;-64
2021/01/17 09:10:06;;;;;;;26.60;13.52;;;;;;;;;;5072937;28;20021;-64
2021/01/17 09:12:34;;;;;;;24.92;11.90;;;;;;;;;;5072555;28;20095;-64
2021/01/17 09:15:11;;;;;;;26.98;12.75;;;;;;;;;;5072350;28;20020;-64
2021/01/17 09:17:39;;;;;;;24.33;11.70;;;;;;;;;;5074015;28;20380;-64
2021/01/17 09:20:13;;;;;;;26.58;13.02;;;;;;;;;;5073104;28;20020;-64
2021/01/17 09:22:41;;;;;;;27.20;13.35;;;;;;;;;;5073402;28;20095;-64
2021/01/17 09:25:09;;;;;;;28.87;13.90;;;;;;;;;;5073521;28;20078;-64
2021/01/17 09:27:35;;;;;;;30.02;12.88;;;;;;;;;;5073420;28;20265;-64
2021/01/17 09:30:01;;;;;;;25.50;12.70;;;;;;;;;;5072454;28;20513;-64
2021/01/17 09:32:29;;;;;;;24.13;13.07;;;;;;;;;;5073197;28;20492;-64
2021/01/17 09:34:54;;;;;;;24.85;12.88;;;;;;;;;;5073030;28;20048;-64
2021/01/17 09:37:21;;;;;;;22.48;11.95;;;;;;;;;;5073655;28;20025;-64
2021/01/17 09:39:49;;;;;;;23.42;12.25;;;;;;;;;;5071877;28;20016;-64
2021/01/17 09:42:16;;;;;;;22.17;11.73;;;;;;;;;;5071938;28;20020;-64
2021/01/17 09:44:43;;;;;;;24.67;13.75;;;;;;;;;;5073146;28;20029;-64
2021/01/17 09:47:13;;;;;;;26.60;12.88;;;;;;;;;;5073005;28;20008;-64
2021/01/17 09:49:39;;;;;;;24.55;12.73;;;;;;;;;;5072781;28;20016;-64
2021/01/17 09:52:04;;;;;;;23.00;12.10;;;;;;;;;;5073227;28;20074;-64
2021/01/17 09:54:30;;;;;;;27.45;12.32;;;;;;;;;;5071606;28;20024;-64
2021/01/17 09:56:56;;;;;;;20.73;11.82;;;;;;;;;;5072681;28;20016;-64
2021/01/17 09:59:22;;;;;;;24.23;11.68;;;;;;;;;;5073138;28;20027;-64
2021/01/17 10:01:49;;;;;;;25.90;12.93;;;;;;;;;;5071879;28;20021;-64
2021/01/17 10:04:24;;;;;;;23.17;12.73;;;;;;;;;;5072735;28;20504;-63
2021/01/17 10:06:51;;;;;;;25.25;13.77;;;;;;;;;;5071926;28;20025;-64
2021/01/17 10:09:17;;;;;;;30.10;14.50;;;;;;;;;;5072443;28;20013;-65
2021/01/17 10:11:43;;;;;;;27.50;13.63;;;;;;;;;;5072823;28;20021;-65
2021/01/17 10:14:10;;;;;;;27.55;14.07;;;;;;;;;;5071225;28;20062;-64
2021/01/17 10:16:37;;;;;;;34.58;13.93;;;;;;;;;;5072394;28;20021;-64
2021/01/17 10:19:06;;;;;;;29.45;14.00;;;;;;;;;;5072026;28;20016;-64
2021/01/17 10:21:32;;;;;;;26.25;13.10;;;;;;;;;;5078287;28;20019;-65
2021/01/17 10:23:58;;;;;;;25.75;12.70;;;;;;;;;;5093508;28;20015;-65
2021/01/17 10:26:24;;;;;;;26.05;11.85;;;;;;;;;;5094679;28;20020;-64
2021/01/17 10:28:50;;;;;;;24.10;11.38;;;;;;;;;;5088932;28;20607;-65
2021/01/17 10:31:21;;;;;;;21.27;10.80;;;;;;;;;;5085551;28;20048;-65
2021/01/17 10:33:48;;;;;;;25.08;12.95;;;;;;;;;;5087074;28;20048;-65
2021/01/17 10:36:16;;;;;;;23.10;11.77;;;;;;;;;;5085684;28;20059;-65
2021/01/17 10:38:41;;;;;;;27.00;12.05;;;;;;;;;;5085569;28;20091;-66
2021/01/17 10:41:07;;;;;;;20.95;11.80;;;;;;;;;;5075745;28;20144;-66
2021/01/17 10:43:35;;;;;;;19.73;10.50;;;;;;;;;;5089868;28;20019;-65
2021/01/17 10:46:02;;;;;;;21.30;11.43;;;;;;;;;;5087477;28;20023;-66
